createdAt,value
2023-04-04T00:01:25.370Z,11.97
2023-04-04T00:03:55.304Z,6.43
2023-04-04T00:06:24.416Z,8.23
2023-04-04T00:08:55.933Z,7.83
2023-04-04T00:11:26.402Z,8.40
2023-04-04T00:13:57.122Z,10.37
2023-04-04T00:16:26.877Z,8.90
2023-04-04T00:18:55.909Z,8.93
2023-04-04T00:21:27.378Z,14.23
2023-04-04T00:23:56.495Z,8.47
2023-04-04T00:26:26.588Z,9.93
2023-04-04T00:28:55.675Z,9.13
2023-04-04T00:31:27.184Z,6.10
2023-04-04T00:33:56.581Z,9.63
2023-04-04T00:36:26.664Z,7.60
2023-04-04T00:38:56.258Z,10.07
2023-04-04T00:41:29.162Z,9.03
2023-04-04T00:43:59.653Z,14.83
2023-04-04T00:46:29.397Z,7.60
2023-04-04T00:48:58.932Z,6.23
2023-04-04T00:51:28.292Z,9.20
2023-04-04T00:53:57.139Z,10.20
2023-04-04T00:56:30.771Z,7.13
2023-04-04T00:59:01.346Z,6.77
2023-04-04T01:01:31.644Z,5.93
2023-04-04T01:04:00.755Z,7.63
2023-04-04T01:06:32.222Z,9.60
2023-04-04T01:09:02.406Z,6.25
2023-04-04T01:11:31.445Z,5.10
2023-04-04T01:14:01.554Z,7.80
2023-04-04T01:16:30.391Z,7.07
2023-04-04T01:19:01.927Z,5.50
2023-04-04T01:21:32.436Z,8.30
2023-04-04T01:24:04.792Z,9.73
2023-04-04T01:26:51.626Z,11.20
2023-04-04T01:29:20.695Z,8.17
2023-04-04T01:31:57.378Z,8.60
2023-04-04T01:34:34.475Z,9.13
2023-04-04T01:37:07.555Z,9.00
2023-04-04T01:39:44.536Z,10.13
2023-04-04T01:42:16.413Z,9.40
2023-04-04T01:44:54.559Z,9.93
2023-04-04T01:47:24.146Z,8.40
2023-04-04T01:49:55.409Z,6.53
2023-04-04T01:52:27.729Z,10.38
2023-04-04T01:54:58.731Z,8.07
2023-04-04T01:57:27.820Z,8.43
2023-04-04T01:59:57.065Z,6.67
2023-04-04T02:02:26.648Z,7.37
2023-04-04T02:04:55.827Z,6.83
2023-04-04T02:07:25.685Z,8.07
2023-04-04T02:09:55.819Z,7.77
2023-04-04T02:12:24.701Z,10.47
2023-04-04T02:14:54.158Z,11.37
2023-04-04T02:17:23.393Z,15.07
2023-04-04T02:19:52.867Z,8.10
2023-04-04T02:22:21.654Z,10.50
2023-04-04T02:24:53.684Z,8.47
2023-04-04T02:27:23.060Z,10.13
2023-04-04T02:29:55.014Z,10.40
2023-04-04T02:32:24.467Z,11.53
2023-04-04T02:34:54.045Z,11.43
2023-04-04T02:37:23.079Z,10.83
2023-04-04T02:39:54.998Z,8.87
2023-04-04T02:42:25.649Z,11.23
2023-04-04T02:44:54.669Z,8.73
2023-04-04T02:47:23.920Z,12.10
2023-04-04T02:49:57.285Z,9.20
2023-04-04T02:52:27.810Z,10.27
2023-04-04T02:54:58.479Z,9.97
2023-04-04T02:57:33.551Z,13.57
2023-04-04T03:00:06.153Z,10.00
2023-04-04T03:02:35.295Z,10.73
2023-04-04T03:05:07.064Z,10.50
2023-04-04T03:07:36.248Z,11.77
2023-04-04T03:10:07.177Z,12.93
2023-04-04T03:12:35.985Z,11.95
2023-04-04T03:15:09.045Z,9.93
2023-04-04T03:17:40.050Z,11.37
2023-04-04T03:20:14.792Z,8.57
2023-04-04T03:22:43.691Z,12.33
2023-04-04T03:25:20.081Z,9.43
2023-04-04T03:27:49.136Z,11.90
2023-04-04T03:30:36.706Z,12.10
2023-04-04T03:33:07.872Z,9.90
2023-04-04T03:35:39.584Z,8.83
2023-04-04T03:38:10.628Z,11.47
2023-04-04T03:40:41.399Z,18.67
2023-04-04T03:43:17.671Z,17.87
2023-04-04T03:45:49.811Z,23.20
2023-04-04T03:48:19.450Z,14.60
2023-04-04T03:50:48.234Z,18.03
2023-04-04T03:53:22.804Z,21.97
2023-04-04T03:55:54.486Z,15.90
2023-04-04T03:58:23.906Z,15.43
2023-04-04T04:00:54.185Z,18.20
2023-04-04T04:03:23.490Z,15.90
2023-04-04T04:05:56.042Z,11.33
2023-04-04T04:08:28.874Z,15.67
2023-04-04T04:11:03.348Z,16.97
2023-04-04T04:13:38.402Z,22.57
2023-04-04T04:16:08.383Z,10.33
2023-04-04T04:18:41.264Z,12.47
2023-04-04T04:21:14.297Z,13.90
2023-04-04T04:23:45.402Z,11.40
2023-04-04T04:26:17.157Z,12.40
2023-04-04T04:28:48.848Z,26.43
2023-04-04T04:31:22.761Z,22.43
2023-04-04T04:33:56.473Z,27.70
2023-04-04T04:36:28.526Z,29.03
2023-04-04T04:39:17.521Z,16.47
2023-04-04T04:41:58.753Z,13.05
2023-04-04T04:44:32.601Z,16.03
2023-04-04T04:47:03.324Z,16.47
2023-04-04T04:49:34.030Z,13.13
2023-04-04T04:52:05.152Z,13.27
2023-04-04T04:54:35.923Z,14.07
2023-04-04T04:57:06.305Z,16.50
2023-04-04T04:59:38.202Z,17.05
2023-04-04T05:02:07.990Z,19.07
2023-04-04T05:04:45.250Z,12.10
2023-04-04T05:07:20.699Z,18.03
2023-04-04T05:09:52.803Z,19.20
2023-04-04T05:12:24.147Z,14.87
2023-04-04T05:14:54.168Z,11.33
2023-04-04T05:17:23.045Z,8.27
2023-04-04T05:19:54.567Z,11.60
2023-04-04T05:22:23.858Z,11.10
2023-04-04T05:24:54.149Z,11.47
2023-04-04T05:27:25.938Z,9.77
2023-04-04T05:29:58.942Z,11.77
2023-04-04T05:32:30.599Z,12.00
2023-04-04T05:35:10.805Z,10.57
2023-04-04T05:40:15.616Z,9.37
2023-04-04T05:42:54.914Z,10.15
2023-04-04T05:45:29.054Z,9.77
2023-04-04T05:47:58.051Z,10.17
2023-04-04T05:50:27.974Z,11.30
2023-04-04T05:53:02.509Z,8.40
2023-04-04T05:55:32.117Z,14.50
2023-04-04T05:58:01.269Z,14.23
2023-04-04T06:00:43.635Z,13.30
2023-04-04T06:03:13.925Z,10.17
2023-04-04T06:05:44.438Z,7.70
2023-04-04T06:08:15.265Z,8.80
2023-04-04T06:10:44.091Z,11.20
2023-04-04T06:13:13.795Z,7.30
2023-04-04T06:15:45.507Z,13.37
2023-04-04T06:18:16.874Z,12.57
2023-04-04T06:20:46.283Z,12.85
2023-04-04T06:23:17.925Z,8.23
2023-04-04T06:25:51.981Z,12.77
2023-04-04T06:28:22.268Z,9.83
2023-04-04T06:30:52.477Z,10.50
2023-04-04T06:33:30.115Z,8.97
2023-04-04T06:36:00.497Z,9.97
2023-04-04T06:38:30.029Z,6.07
2023-04-04T06:41:02.496Z,9.40
2023-04-04T06:43:31.349Z,6.63
2023-04-04T06:46:01.114Z,8.80
2023-04-04T06:48:30.233Z,10.20
2023-04-04T06:50:59.525Z,8.03
2023-04-04T06:53:29.916Z,10.70
2023-04-04T06:55:59.263Z,8.97
2023-04-04T06:58:29.241Z,8.10
2023-04-04T07:01:01.304Z,5.60
2023-04-04T07:03:31.155Z,6.50
2023-04-04T07:06:04.308Z,5.97
2023-04-04T07:08:36.296Z,6.78
2023-04-04T07:11:07.414Z,11.77
2023-04-04T07:13:36.372Z,7.00
2023-04-04T07:16:05.825Z,8.70
2023-04-04T07:18:34.566Z,8.83
2023-04-04T07:21:03.658Z,8.73
2023-04-04T07:23:32.441Z,7.70
2023-04-04T07:26:02.309Z,8.60
2023-04-04T07:28:31.239Z,7.07
2023-04-04T07:31:01.480Z,6.55
2023-04-04T07:33:30.537Z,9.23
2023-04-04T07:36:01.989Z,8.30
2023-04-04T07:38:30.815Z,8.40
2023-04-04T07:41:00.677Z,8.50
2023-04-04T07:43:30.908Z,9.40
2023-04-04T07:46:00.190Z,8.77
2023-04-04T07:48:29.428Z,7.27
2023-04-04T07:50:59.839Z,8.27
2023-04-04T07:53:28.549Z,9.33
2023-04-04T07:55:57.568Z,7.30
2023-04-04T07:58:26.528Z,11.50
2023-04-04T08:00:57.673Z,7.63
2023-04-04T08:03:26.760Z,7.90
2023-04-04T08:05:56.010Z,6.83
2023-04-04T08:08:25.028Z,5.37
2023-04-04T08:10:55.149Z,8.40
2023-04-04T08:13:24.086Z,7.37
2023-04-04T08:15:53.125Z,6.63
2023-04-04T08:18:21.974Z,9.13
2023-04-04T08:20:50.824Z,10.67
2023-04-04T08:23:19.558Z,10.80
2023-04-04T08:25:48.477Z,6.87
2023-04-04T08:28:17.452Z,7.13
2023-04-04T08:30:47.606Z,8.73
2023-04-04T08:33:16.808Z,8.17
2023-04-04T08:35:45.812Z,6.27
2023-04-04T08:38:17.146Z,7.07
2023-04-04T08:40:47.972Z,5.30
2023-04-04T08:43:17.585Z,7.70
2023-04-04T08:45:50.574Z,8.37
2023-04-04T08:48:22.630Z,8.13
2023-04-04T08:50:53.676Z,8.60
2023-04-04T08:53:22.727Z,7.47
2023-04-04T08:55:53.198Z,9.07
2023-04-04T08:58:22.305Z,6.30
2023-04-04T09:00:53.075Z,6.40
2023-04-04T09:03:25.895Z,6.93
2023-04-04T09:05:56.496Z,11.50
2023-04-04T09:08:25.737Z,6.23
2023-04-04T09:10:55.737Z,6.73
2023-04-04T09:13:24.674Z,7.67
2023-04-04T09:15:54.989Z,6.90
2023-04-04T09:18:23.855Z,8.60
2023-04-04T09:20:52.753Z,6.77
2023-04-04T09:23:23.199Z,9.50
2023-04-04T09:26:03.254Z,9.33
2023-04-04T09:28:33.722Z,7.03
2023-04-04T09:31:06.612Z,8.83
2023-04-04T09:33:36.344Z,8.00
2023-04-04T09:36:09.701Z,5.10
2023-04-04T09:38:42.560Z,5.80
2023-04-04T09:41:16.181Z,7.73
2023-04-04T09:43:46.748Z,6.53
2023-04-04T09:46:20.743Z,4.93
2023-04-04T09:48:51.433Z,9.83
2023-04-04T09:51:20.372Z,7.23
2023-04-04T09:53:52.175Z,5.13
2023-04-04T09:56:33.103Z,7.57
2023-04-04T09:59:04.671Z,9.50
2023-04-04T10:01:34.925Z,5.83
2023-04-04T10:04:05.596Z,7.17
2023-04-04T10:06:38.052Z,4.70
2023-04-04T10:09:08.826Z,5.80
2023-04-04T10:11:38.742Z,7.97
2023-04-04T10:14:09.112Z,4.97
2023-04-04T10:16:44.052Z,5.60
2023-04-04T10:19:17.898Z,6.47
2023-04-04T10:21:49.134Z,6.20
2023-04-04T10:24:18.678Z,6.90
2023-04-04T10:26:47.690Z,5.13
2023-04-04T10:29:16.941Z,5.50
2023-04-04T10:31:56.577Z,5.40
2023-04-04T10:34:36.433Z,6.53
2023-04-04T10:37:10.688Z,8.57
2023-04-04T10:39:52.864Z,6.73
2023-04-04T10:42:23.029Z,4.60
2023-04-04T10:44:53.345Z,5.80
2023-04-04T10:47:25.563Z,7.17
2023-04-04T10:49:57.179Z,8.07
2023-04-04T10:52:29.763Z,6.00
2023-04-04T10:55:04.416Z,6.37
2023-04-04T10:57:34.285Z,4.10
2023-04-04T11:00:07.137Z,5.93
2023-04-04T11:02:50.820Z,7.03
2023-04-04T11:05:26.144Z,4.50
2023-04-04T11:10:32.551Z,9.80
2023-04-04T11:13:13.396Z,5.43
2023-04-04T11:15:52.293Z,5.33
2023-04-04T11:18:33.095Z,5.00
2023-04-04T11:21:05.001Z,6.13
2023-04-04T11:24:15.774Z,7.57
2023-04-04T11:26:46.640Z,5.30
2023-04-04T11:29:42.262Z,7.33
2023-04-04T11:32:29.455Z,6.13
2023-04-04T11:34:58.406Z,8.87
2023-04-04T11:37:32.329Z,6.93
2023-04-04T11:40:12.447Z,5.10
2023-04-04T11:42:42.879Z,7.63
2023-04-04T11:45:19.584Z,9.67
2023-04-04T11:47:49.066Z,6.37
2023-04-04T11:50:20.416Z,6.17
2023-04-04T11:52:53.347Z,3.83
2023-04-04T11:55:23.260Z,5.40
2023-04-04T11:57:54.985Z,6.47
2023-04-04T12:00:31.518Z,4.10
2023-04-04T12:03:00.695Z,3.83
2023-04-04T12:05:31.370Z,5.00
2023-04-04T12:08:02.678Z,4.80
2023-04-04T12:10:35.597Z,4.70
2023-04-04T12:13:07.447Z,4.50
2023-04-04T12:15:37.923Z,4.07
2023-04-04T12:18:10.627Z,5.07
2023-04-04T12:20:41.068Z,4.97
2023-04-04T12:23:10.046Z,10.07
2023-04-04T12:25:43.626Z,5.17
2023-04-04T12:28:15.240Z,6.77
2023-04-04T12:30:45.711Z,7.17
2023-04-04T12:33:17.530Z,5.80
2023-04-04T12:35:54.910Z,7.67
2023-04-04T12:38:24.402Z,6.37
2023-04-04T12:40:53.352Z,6.67
2023-04-04T12:43:22.248Z,7.27
2023-04-04T12:45:53.737Z,4.57
2023-04-04T12:48:28.177Z,5.77
2023-04-04T12:50:58.617Z,6.03
2023-04-04T12:53:30.076Z,5.15
2023-04-04T12:56:04.475Z,4.83
2023-04-04T12:58:37.629Z,4.65
2023-04-04T13:01:09.021Z,5.33
2023-04-04T13:03:38.777Z,7.60
2023-04-04T13:06:15.642Z,7.37
2023-04-04T13:08:51.724Z,9.70
2023-04-04T13:11:26.208Z,7.30
2023-04-04T13:14:03.385Z,9.23
2023-04-04T13:16:35.116Z,6.23
2023-04-04T13:19:04.912Z,7.23
2023-04-04T13:21:34.676Z,5.67
2023-04-04T13:24:03.774Z,11.43
2023-04-04T13:26:33.321Z,7.10
2023-04-04T13:29:02.211Z,4.80
2023-04-04T13:31:31.860Z,6.23
2023-04-04T13:34:00.621Z,5.90
2023-04-04T13:36:30.751Z,5.83
2023-04-04T13:38:59.773Z,5.63
2023-04-04T13:41:29.284Z,5.63
2023-04-04T13:43:58.620Z,5.13
2023-04-04T13:46:27.809Z,7.73
2023-04-04T13:48:56.664Z,5.93
2023-04-04T13:51:27.858Z,9.63
2023-04-04T13:53:56.541Z,6.33
2023-04-04T13:56:28.043Z,8.37
2023-04-04T13:58:57.392Z,6.87
2023-04-04T14:01:26.785Z,8.03
2023-04-04T14:03:55.836Z,6.93
2023-04-04T14:06:25.949Z,5.97
2023-04-04T14:08:55.319Z,6.60
2023-04-04T14:11:30.532Z,9.07
2023-04-04T14:13:59.341Z,5.00
2023-04-04T14:16:28.421Z,8.13
2023-04-04T14:18:58.555Z,5.40
2023-04-04T14:21:30.558Z,6.60
2023-04-04T14:24:01.432Z,5.43
2023-04-04T14:26:30.249Z,6.07
2023-04-04T14:28:59.043Z,6.53
2023-04-04T14:31:31.910Z,5.70
2023-04-04T14:34:02.233Z,7.60
2023-04-04T14:36:31.952Z,9.07
2023-04-04T14:39:01.102Z,5.73
2023-04-04T14:41:30.256Z,8.95
2023-04-04T14:43:59.504Z,7.70
2023-04-04T14:46:28.953Z,11.57
2023-04-04T14:49:00.065Z,9.57
2023-04-04T14:51:30.791Z,8.53
2023-04-04T14:54:02.322Z,4.97
2023-04-04T14:56:31.591Z,6.70
2023-04-04T14:59:05.140Z,10.87
2023-04-04T15:01:34.925Z,8.38
2023-04-04T15:04:03.799Z,7.93
2023-04-04T15:06:37.499Z,7.07
2023-04-04T15:09:07.657Z,8.60
2023-04-04T15:11:37.081Z,7.87
2023-04-04T15:14:06.303Z,6.80
2023-04-04T15:16:35.620Z,6.77
2023-04-04T15:19:04.520Z,6.77
2023-04-04T15:21:33.304Z,6.00
2023-04-04T15:24:02.048Z,5.43
2023-04-04T15:26:31.057Z,9.57
2023-04-04T15:29:00.200Z,7.93
2023-04-04T15:31:31.510Z,8.37
2023-04-04T15:34:00.668Z,6.03
2023-04-04T15:36:33.008Z,7.70
2023-04-04T15:39:02.846Z,9.73
2023-04-04T15:41:32.674Z,9.57
2023-04-04T15:44:01.877Z,9.97
2023-04-04T15:46:36.007Z,12.53
2023-04-04T15:51:36.289Z,8.10
2023-04-04T15:54:05.932Z,7.37
2023-04-04T15:56:35.225Z,8.03
2023-04-04T15:59:04.636Z,10.47
2023-04-04T16:01:34.839Z,13.03
2023-04-04T16:04:04.647Z,11.27
2023-04-04T16:06:34.135Z,8.20
2023-04-04T16:09:03.750Z,8.57
2023-04-04T16:11:33.449Z,8.13
2023-04-04T16:14:02.458Z,6.80
2023-04-04T16:16:33.377Z,5.13
2023-04-04T16:19:02.324Z,10.17
2023-04-04T16:21:32.221Z,7.90
2023-04-04T16:24:03.078Z,12.83
2023-04-04T16:26:32.355Z,8.53
2023-04-04T16:29:02.871Z,6.70
2023-04-04T16:31:33.413Z,10.97
2023-04-04T16:34:03.352Z,6.50
2023-04-04T16:36:32.931Z,11.40
2023-04-04T16:39:01.904Z,9.10
2023-04-04T16:41:31.208Z,8.83
2023-04-04T16:44:00.269Z,5.87
2023-04-04T16:46:29.707Z,6.30
2023-04-04T16:48:58.905Z,6.83
2023-04-04T16:51:29.030Z,8.33
2023-04-04T16:53:58.134Z,6.07
2023-04-04T16:56:31.018Z,8.40
2023-04-04T16:58:59.918Z,8.00
2023-04-04T17:01:33.404Z,8.30
2023-04-04T17:04:02.597Z,10.58
2023-04-04T17:06:32.756Z,14.47
2023-04-04T17:09:01.600Z,12.70
2023-04-04T17:11:31.369Z,7.60
2023-04-04T17:14:00.314Z,5.63
2023-04-04T17:16:29.889Z,9.17
2023-04-04T17:18:59.060Z,11.20
2023-04-04T17:21:28.173Z,9.95
2023-04-04T17:23:57.347Z,10.80
2023-04-04T17:26:31.269Z,8.77
2023-04-04T17:29:00.261Z,16.77
2023-04-04T17:31:32.524Z,8.75
2023-04-04T17:34:01.608Z,12.57
2023-04-04T17:36:31.769Z,10.53
2023-04-04T17:39:00.795Z,12.50
2023-04-04T17:41:31.015Z,12.77
2023-04-04T17:43:59.807Z,13.23
2023-04-04T17:46:31.735Z,9.30
2023-04-04T17:49:01.325Z,10.67
2023-04-04T17:51:31.594Z,10.90
2023-04-04T17:54:00.864Z,11.33
2023-04-04T17:56:31.786Z,13.53
2023-04-04T17:59:01.234Z,11.40
2023-04-04T18:01:39.132Z,11.90
2023-04-04T18:04:08.845Z,10.00
2023-04-04T18:06:40.295Z,13.13
2023-04-04T18:09:11.008Z,11.60
2023-04-04T18:11:40.489Z,11.00
2023-04-04T18:14:09.473Z,13.93
2023-04-04T18:16:40.984Z,21.97
2023-04-04T18:19:11.293Z,53.17
2023-04-04T18:21:41.100Z,43.13
2023-04-04T18:24:11.397Z,26.97
2023-04-04T18:26:45.362Z,27.20
2023-04-04T18:29:21.024Z,24.25
2023-04-04T18:31:56.545Z,36.57
2023-04-04T18:34:27.461Z,34.60
2023-04-04T18:36:57.163Z,26.03
2023-04-04T18:39:27.125Z,19.53
2023-04-04T18:41:57.601Z,23.43
2023-04-04T18:44:27.156Z,15.63
2023-04-04T18:46:58.706Z,16.50
2023-04-04T18:49:28.223Z,16.95
2023-04-04T18:51:57.846Z,17.83
2023-04-04T18:54:27.127Z,18.37
2023-04-04T18:57:02.305Z,16.20
2023-04-04T18:59:37.912Z,50.73
2023-04-04T19:02:12.386Z,59.20
2023-04-04T19:04:48.785Z,49.00
2023-04-04T19:09:57.438Z,59.57
2023-04-04T19:12:32.036Z,55.60
2023-04-04T19:15:03.604Z,70.30
2023-04-04T19:17:44.159Z,55.75
2023-04-04T19:20:18.148Z,68.73
2023-04-04T19:22:51.059Z,66.30
2023-04-04T19:27:56.955Z,43.70
2023-04-04T19:30:43.409Z,40.97
2023-04-04T19:33:18.285Z,32.83
2023-04-04T19:35:56.096Z,38.33
2023-04-04T19:38:33.097Z,24.33
2023-04-04T19:41:34.073Z,25.37
2023-04-04T19:44:21.491Z,26.87
2023-04-04T19:46:54.183Z,24.80
2023-04-04T19:49:27.614Z,24.63
2023-04-04T19:51:59.134Z,26.85
2023-04-04T19:54:29.575Z,24.97
2023-04-04T19:57:05.967Z,32.83
2023-04-04T20:00:14.280Z,32.07
2023-04-04T20:02:59.942Z,35.90
2023-04-04T20:05:59.869Z,37.43
2023-04-04T20:08:36.912Z,37.33
2023-04-04T20:11:07.066Z,32.20
2023-04-04T20:13:37.214Z,36.87
2023-04-04T20:16:14.476Z,33.13
2023-04-04T20:18:47.029Z,37.23
2023-04-04T20:21:20.461Z,41.73
2023-04-04T20:23:52.753Z,47.38
2023-04-04T20:26:42.237Z,42.67
2023-04-04T20:29:12.585Z,40.03
2023-04-04T20:31:45.058Z,44.43
2023-04-04T20:34:42.467Z,44.87
2023-04-04T20:37:19.261Z,38.70
2023-04-04T20:39:52.453Z,43.80
2023-04-04T20:42:38.127Z,48.33
2023-04-04T20:45:35.669Z,47.53
2023-04-04T20:48:07.845Z,49.83
2023-04-04T20:50:45.739Z,77.17
2023-04-04T20:53:20.114Z,65.97
2023-04-04T20:55:50.576Z,50.90
2023-04-04T20:58:26.805Z,46.57
2023-04-04T21:00:57.183Z,47.17
2023-04-04T21:03:40.486Z,47.20
2023-04-04T21:06:16.986Z,49.23
2023-04-04T21:08:51.123Z,49.60
2023-04-04T21:11:28.344Z,48.00
2023-04-04T21:13:58.029Z,43.13
2023-04-04T21:16:28.882Z,48.67
2023-04-04T21:19:00.467Z,51.30
2023-04-04T21:21:30.046Z,47.17
2023-04-04T21:24:00.145Z,47.93
2023-04-04T21:26:32.264Z,51.03
2023-04-04T21:29:03.622Z,46.43
2023-04-04T21:31:38.389Z,55.07
2023-04-04T21:34:13.828Z,58.73
2023-04-04T21:36:43.993Z,61.37
2023-04-04T21:39:16.223Z,54.30
2023-04-04T21:41:47.670Z,56.93
2023-04-04T21:44:17.305Z,61.70
2023-04-04T21:46:49.441Z,63.87
2023-04-04T21:49:19.209Z,61.90
2023-04-04T21:51:49.116Z,63.40
2023-04-04T21:54:17.921Z,66.37
2023-04-04T21:56:47.250Z,56.60
2023-04-04T21:59:16.567Z,54.43
2023-04-04T22:01:45.840Z,64.30
2023-04-04T22:04:15.407Z,65.73
2023-04-04T22:06:44.987Z,55.63
2023-04-04T22:09:15.965Z,55.80
2023-04-04T22:11:44.935Z,50.60
2023-04-04T22:14:16.770Z,57.70
2023-04-04T22:16:46.755Z,55.13
2023-04-04T22:19:17.515Z,58.43
2023-04-04T22:21:47.746Z,50.40
2023-04-04T22:24:17.483Z,52.80
2023-04-04T22:26:46.898Z,51.63
2023-04-04T22:29:17.224Z,59.70
2023-04-04T22:31:46.628Z,60.17
2023-04-04T22:34:16.358Z,67.60
2023-04-04T22:36:45.288Z,55.85
2023-04-04T22:39:15.247Z,54.33
2023-04-04T22:41:45.732Z,57.23
2023-04-04T22:44:15.425Z,61.43
2023-04-04T22:46:44.281Z,58.70
2023-04-04T22:49:15.691Z,50.63
2023-04-04T22:51:45.080Z,53.73
2023-04-04T22:54:17.021Z,62.80
2023-04-04T22:56:46.575Z,58.07
2023-04-04T22:59:16.516Z,51.50
2023-04-04T23:01:45.599Z,58.73
2023-04-04T23:04:15.627Z,55.80
2023-04-04T23:06:45.912Z,61.63
2023-04-04T23:09:15.717Z,62.90
2023-04-04T23:11:44.417Z,58.40
2023-04-04T23:14:14.865Z,58.73
2023-04-04T23:16:43.599Z,61.43
2023-04-04T23:19:14.823Z,73.83
2023-04-04T23:21:44.269Z,68.53
2023-04-04T23:24:13.839Z,66.70
2023-04-04T23:26:42.784Z,62.40
2023-04-04T23:29:12.002Z,61.27
2023-04-04T23:31:41.551Z,60.07
2023-04-04T23:34:10.322Z,58.13
2023-04-04T23:36:39.430Z,62.80
2023-04-04T23:39:08.955Z,61.03
2023-04-04T23:41:37.761Z,55.23
2023-04-04T23:44:07.484Z,53.30
2023-04-04T23:46:36.491Z,57.87
2023-04-04T23:49:05.668Z,59.73
2023-04-04T23:51:38.289Z,51.40
2023-04-04T23:54:09.490Z,61.13
2023-04-04T23:56:38.347Z,61.23
2023-04-04T23:59:10.970Z,56.30
